Time;durP1;ratioP1;P1;durP2;ratioP2;P2;SDS_P1;SDS_P2;PMS_P1;PMS_P2;Temp;Humidity;BMP_temperature;BMP_pressure;BME280_temperature;BME280_humidity;BME280_pressure;Samples;Min_cycle;Max_cycle;Signal;HPM_P1;HPM_P2
2024/01/26 00:01:01;;;;;;;;;;;11.50;99.90;;;;;;4950602;28;20650;-84
2024/01/26 00:03:29;;;;;;;;;;;11.50;99.90;;;;;;4957902;28;19976;-84
2024/01/26 00:06:00;;;;;;;;;;;11.50;99.90;;;;;;4982792;28;20062;-83
2024/01/26 00:08:39;;;;;;;;;;;11.50;99.90;;;;;;4981170;28;19950;-84
2024/01/26 00:11:07;;;;;;;;;;;11.60;99.90;;;;;;4959508;28;19956;-84
2024/01/26 00:13:38;;;;;;;;;;;11.50;99.90;;;;;;4961482;28;19947;-84
2024/01/26 00:16:04;;;;;;;;;;;11.50;99.90;;;;;;4951249;28;19956;-84
2024/01/26 00:18:30;;;;;;;;;;;11.50;99.90;;;;;;4951294;28;19956;-84
2024/01/26 00:20:55;;;;;;;;;;;11.60;99.90;;;;;;4957595;28;19946;-85
2024/01/26 00:23:29;;;;;;;;;;;11.60;99.90;;;;;;4973424;28;19938;-84
2024/01/26 00:25:57;;;;;;;;;;;11.60;99.90;;;;;;4976442;28;20041;-83
2024/01/26 00:28:25;;;;;;;;;;;11.60;99.90;;;;;;4978679;28;19950;-85
2024/01/26 00:30:57;;;;;;;;;;;11.60;99.90;;;;;;4981612;28;19941;-84
2024/01/26 00:33:28;;;;;;;;;;;11.60;99.90;;;;;;4965442;28;19953;-84
2024/01/26 00:36:04;;;;;;;;;;;11.60;99.90;;;;;;4957435;28;20048;-84
2024/01/26 00:38:37;;;;;;;;;;;11.60;99.90;;;;;;4955723;28;20347;-83
2024/01/26 00:41:03;;;;;;;;;;;11.60;99.90;;;;;;4951376;28;20029;-83
2024/01/26 00:43:31;;;;;;;;;;;11.60;99.90;;;;;;4960401;28;25166;-83
2024/01/26 00:46:03;;;;;;;;;;;11.60;99.90;;;;;;4960271;28;19956;-84
2024/01/26 00:48:43;;;;;;;;;;;11.50;99.90;;;;;;4961734;28;20007;-85
2024/01/26 00:51:12;;;;;;;;;;;11.60;99.90;;;;;;4952269;28;20290;-84
2024/01/26 00:53:38;;;;;;;;;;;11.50;99.90;;;;;;4958009;28;19959;-85
2024/01/26 00:56:03;;;;;;;;;;;11.50;99.90;;;;;;4957359;28;20388;-82
2024/01/26 00:58:29;;;;;;;;;;;11.60;99.90;;;;;;4946267;28;19946;-84
2024/01/26 01:00:54;;;;;;;;;;;11.50;99.90;;;;;;4943175;28;20004;-84
2024/01/26 01:03:20;;;;;;;;;;;11.50;99.90;;;;;;4948472;28;20543;-84
2024/01/26 01:05:45;;;;;;;;;;;11.50;99.90;;;;;;4949664;28;20212;-84
2024/01/26 01:08:11;;;;;;;;;;;11.50;99.90;;;;;;4949204;28;20040;-85
2024/01/26 01:10:47;;;;;;;;;;;11.50;99.90;;;;;;4952630;28;19962;-84
2024/01/26 01:13:17;;;;;;;;;;;11.50;99.90;;;;;;4954581;28;20046;-85
2024/01/26 01:15:45;;;;;;;;;;;11.50;99.90;;;;;;4953114;28;19956;-84
2024/01/26 01:18:10;;;;;;;;;;;11.50;99.90;;;;;;4950757;28;20216;-86
2024/01/26 01:20:36;;;;;;;;;;;11.50;99.90;;;;;;4949568;28;20705;-85
2024/01/26 01:23:02;;;;;;;;;;;11.60;99.90;;;;;;4952251;28;19976;-85
2024/01/26 01:25:33;;;;;;;;;;;11.50;99.90;;;;;;4954521;28;20406;-85
2024/01/26 01:27:59;;;;;;;;;;;11.60;99.90;;;;;;4947504;28;19980;-85
2024/01/26 01:30:24;;;;;;;;;;;11.60;99.90;;;;;;4950849;28;20726;-86
2024/01/26 01:32:53;;;;;;;;;;;11.60;99.90;;;;;;4937565;28;20402;-85
2024/01/26 01:35:18;;;;;;;;;;;11.60;99.90;;;;;;4931695;28;19945;-85
2024/01/26 01:37:44;;;;;;;;;;;11.60;99.90;;;;;;4932645;28;19942;-84
2024/01/26 01:40:09;;;;;;;;;;;11.70;99.90;;;;;;4929722;28;19961;-83
2024/01/26 01:42:35;;;;;;;;;;;11.60;99.90;;;;;;4930997;28;20303;-82
2024/01/26 01:45:01;;;;;;;;;;;11.60;99.90;;;;;;4933793;28;19982;-83
2024/01/26 01:47:27;;;;;;;;;;;11.60;99.90;;;;;;4931554;28;19944;-83
2024/01/26 01:49:52;;;;;;;;;;;11.60;99.90;;;;;;4927717;28;20329;-83
2024/01/26 01:52:18;;;;;;;;;;;11.60;99.90;;;;;;4931784;28;20008;-83
2024/01/26 01:54:44;;;;;;;;;;;11.60;99.90;;;;;;4927429;28;20050;-83
2024/01/26 01:57:11;;;;;;;;;;;11.60;99.90;;;;;;4927971;28;21571;-82
2024/01/26 01:59:37;;;;;;;;;;;11.60;99.90;;;;;;4927930;28;20261;-82
2024/01/26 02:02:03;;;;;;;;;;;11.60;99.90;;;;;;4931054;28;19948;-83
2024/01/26 02:04:28;;;;;;;;;;;11.60;99.90;;;;;;4934501;28;20113;-82
2024/01/26 02:06:54;;;;;;;;;;;11.60;99.90;;;;;;4924736;28;19963;-82
2024/01/26 02:09:20;;;;;;;;;;;11.60;99.90;;;;;;4921837;28;19948;-82
2024/01/26 02:11:46;;;;;;;;;;;11.60;99.90;;;;;;4922893;28;20066;-81
2024/01/26 02:14:11;;;;;;;;;;;11.60;99.90;;;;;;4918975;28;20041;-82
2024/01/26 02:16:37;;;;;;;;;;;11.50;99.90;;;;;;4928769;28;19955;-82
2024/01/26 02:19:02;;;;;;;;;;;11.50;99.90;;;;;;4929432;28;19952;-83
2024/01/26 02:21:28;;;;;;;;;;;11.50;99.90;;;;;;4927605;28;20667;-83
2024/01/26 02:23:53;;;;;;;;;;;11.50;99.90;;;;;;4926573;28;20076;-83
2024/01/26 02:26:19;;;;;;;;;;;11.50;99.90;;;;;;4931251;28;20054;-83
2024/01/26 02:28:44;;;;;;;;;;;11.50;99.90;;;;;;4931104;28;20760;-83
2024/01/26 02:31:10;;;;;;;;;;;11.50;99.90;;;;;;4942697;28;19946;-83
2024/01/26 02:33:35;;;;;;;;;;;11.50;99.90;;;;;;4954457;28;20411;-83
2024/01/26 02:36:01;;;;;;;;;;;11.50;99.90;;;;;;4952221;28;19994;-83
2024/01/26 02:38:26;;;;;;;;;;;11.50;99.90;;;;;;4945161;28;19975;-83
2024/01/26 02:40:52;;;;;;;;;;;11.50;99.90;;;;;;4946144;28;20467;-85
2024/01/26 02:43:18;;;;;;;;;;;11.50;99.90;;;;;;4959327;28;19936;-84
2024/01/26 02:45:46;;;;;;;;;;;11.50;99.90;;;;;;4972055;28;20178;-83
2024/01/26 02:48:11;;;;;;;;;;;11.50;99.90;;;;;;4964795;28;20294;-81
2024/01/26 02:50:38;;;;;;;;;;;11.50;99.90;;;;;;4963268;28;20298;-82
2024/01/26 02:53:03;;;;;;;;;;;11.50;99.90;;;;;;4957269;28;20568;-82
2024/01/26 02:55:29;;;;;;;;;;;11.50;99.90;;;;;;4951159;28;20098;-83
2024/01/26 02:57:54;;;;;;;;;;;11.50;99.90;;;;;;4949408;28;19949;-82
2024/01/26 03:00:20;;;;;;;;;;;11.60;99.90;;;;;;4952120;28;20449;-82
2024/01/26 03:02:45;;;;;;;;;;;11.50;99.90;;;;;;4945693;28;20398;-80
2024/01/26 03:05:11;;;;;;;;;;;11.50;99.90;;;;;;4952820;28;20425;-82
2024/01/26 03:07:36;;;;;;;;;;;11.60;99.90;;;;;;4947323;28;19950;-82
2024/01/26 03:10:02;;;;;;;;;;;11.50;99.90;;;;;;4961973;28;20139;-82
2024/01/26 03:12:28;;;;;;;;;;;11.60;99.90;;;;;;4969960;28;19985;-83
2024/01/26 03:14:53;;;;;;;;;;;11.60;99.90;;;;;;4952791;28;19993;-82
2024/01/26 03:17:19;;;;;;;;;;;11.60;99.90;;;;;;4946873;28;20092;-83
2024/01/26 03:19:45;;;;;;;;;;;11.60;99.90;;;;;;4947294;28;20618;-83
2024/01/26 03:22:11;;;;;;;;;;;11.60;99.90;;;;;;4945090;28;19997;-83
2024/01/26 03:24:36;;;;;;;;;;;11.60;99.90;;;;;;4951761;28;20732;-82
2024/01/26 03:27:02;;;;;;;;;;;11.60;99.90;;;;;;4950044;28;20434;-83
2024/01/26 03:29:27;;;;;;;;;;;11.70;99.90;;;;;;4951506;28;19957;-84
2024/01/26 03:31:53;;;;;;;;;;;11.70;99.90;;;;;;4957036;28;19977;-84
2024/01/26 03:34:19;;;;;;;;;;;11.60;99.90;;;;;;4956148;28;20435;-84
2024/01/26 03:36:45;;;;;;;;;;;11.70;99.90;;;;;;4954220;28;19963;-84
2024/01/26 03:39:10;;;;;;;;;;;11.70;99.90;;;;;;4962200;28;19958;-84
2024/01/26 03:41:40;;;;;;;;;;;11.70;99.90;;;;;;4959978;28;20408;-83
2024/01/26 03:44:06;;;;;;;;;;;11.70;99.90;;;;;;4950832;28;19954;-84
2024/01/26 03:46:31;;;;;;;;;;;11.70;99.90;;;;;;4952571;28;20401;-83
2024/01/26 03:48:57;;;;;;;;;;;11.70;99.90;;;;;;4959213;28;20018;-83
2024/01/26 03:51:23;;;;;;;;;;;11.80;99.90;;;;;;4955046;28;20207;-83
2024/01/26 03:53:48;;;;;;;;;;;11.80;99.90;;;;;;4952462;28;19953;-83
2024/01/26 03:56:14;;;;;;;;;;;11.70;99.90;;;;;;4951259;28;19958;-83
2024/01/26 03:58:39;;;;;;;;;;;11.80;99.90;;;;;;4953059;28;19949;-83
2024/01/26 04:01:05;;;;;;;;;;;11.70;99.90;;;;;;4952551;28;19961;-82
2024/01/26 04:03:30;;;;;;;;;;;11.70;99.90;;;;;;4949671;28;19957;-82
2024/01/26 04:05:56;;;;;;;;;;;11.80;99.90;;;;;;4952654;28;20651;-83
2024/01/26 04:08:21;;;;;;;;;;;11.70;99.90;;;;;;4954461;28;19954;-83
2024/01/26 04:10:47;;;;;;;;;;;11.70;99.90;;;;;;4964493;28;19966;-83
2024/01/26 04:13:12;;;;;;;;;;;11.70;99.90;;;;;;4967154;28;19957;-83
2024/01/26 04:15:39;;;;;;;;;;;11.70;99.90;;;;;;4971309;28;19947;-83
2024/01/26 04:18:04;;;;;;;;;;;11.70;99.90;;;;;;4954369;28;19949;-84
2024/01/26 04:20:30;;;;;;;;;;;11.70;99.90;;;;;;4945984;28;20351;-83
2024/01/26 04:22:55;;;;;;;;;;;11.70;99.90;;;;;;4938387;28;20441;-83
2024/01/26 04:25:21;;;;;;;;;;;11.70;99.90;;;;;;4941148;28;19943;-83
2024/01/26 04:27:46;;;;;;;;;;;11.80;99.90;;;;;;4938845;28;19947;-83
2024/01/26 04:30:13;;;;;;;;;;;11.70;99.90;;;;;;4945158;28;20196;-83
2024/01/26 04:32:39;;;;;;;;;;;11.80;99.90;;;;;;4950454;28;19957;-83
2024/01/26 04:35:04;;;;;;;;;;;11.70;99.90;;;;;;4951377;28;25099;-83
2024/01/26 04:37:30;;;;;;;;;;;11.70;99.90;;;;;;4957434;28;20001;-83
2024/01/26 04:39:55;;;;;;;;;;;11.70;99.90;;;;;;4948602;28;20322;-83
2024/01/26 04:42:21;;;;;;;;;;;11.70;99.90;;;;;;4960456;28;19958;-83
2024/01/26 04:44:46;;;;;;;;;;;11.70;99.90;;;;;;4955704;28;20399;-83
2024/01/26 04:47:12;;;;;;;;;;;11.70;99.90;;;;;;4953796;28;20208;-82
2024/01/26 04:49:37;;;;;;;;;;;11.60;99.90;;;;;;4953547;28;19951;-83
2024/01/26 04:52:03;;;;;;;;;;;11.60;99.90;;;;;;4953842;28;20625;-83
2024/01/26 04:54:28;;;;;;;;;;;11.60;99.90;;;;;;4959573;28;20424;-82
2024/01/26 04:56:54;;;;;;;;;;;11.60;99.90;;;;;;4953327;28;19956;-83
2024/01/26 04:59:19;;;;;;;;;;;11.70;99.90;;;;;;4954219;28;19951;-83
2024/01/26 05:01:45;;;;;;;;;;;11.70;99.90;;;;;;4954658;28;19952;-83
2024/01/26 05:04:10;;;;;;;;;;;11.60;99.90;;;;;;4975396;28;19941;-82
2024/01/26 05:06:36;;;;;;;;;;;11.70;99.90;;;;;;4980936;28;19970;-83
2024/01/26 05:09:01;;;;;;;;;;;11.70;99.90;;;;;;4977654;28;19942;-83
2024/01/26 05:11:27;;;;;;;;;;;11.60;99.90;;;;;;4976428;28;19950;-83
2024/01/26 05:13:52;;;;;;;;;;;11.70;99.90;;;;;;4960605;28;20017;-83
2024/01/26 05:16:18;;;;;;;;;;;11.60;99.90;;;;;;4953072;28;19945;-83
2024/01/26 05:18:43;;;;;;;;;;;11.60;99.90;;;;;;4947696;28;19934;-83
2024/01/26 05:21:09;;;;;;;;;;;11.60;99.90;;;;;;4950141;28;19950;-81
2024/01/26 05:23:35;;;;;;;;;;;11.50;99.90;;;;;;4950055;28;19948;-82
2024/01/26 05:26:01;;;;;;;;;;;11.40;99.90;;;;;;4953909;28;20090;-82
2024/01/26 05:28:26;;;;;;;;;;;11.20;99.90;;;;;;4946525;28;19946;-82
2024/01/26 05:30:52;;;;;;;;;;;10.80;99.90;;;;;;4956631;28;19947;-82
2024/01/26 05:33:18;;;;;;;;;;;10.30;99.90;;;;;;4954684;28;20803;-83
2024/01/26 05:35:45;;;;;;;;;;;10.00;99.90;;;;;;4951196;28;19952;-83
2024/01/26 05:38:10;;;;;;;;;;;9.70;99.90;;;;;;4949263;28;20161;-83
2024/01/26 05:40:36;;;;;;;;;;;9.50;99.90;;;;;;4946799;28;19996;-83
2024/01/26 05:43:02;;;;;;;;;;;9.50;99.90;;;;;;4955184;28;20085;-82
2024/01/26 05:45:27;;;;;;;;;;;9.50;99.90;;;;;;4956413;28;19980;-83
2024/01/26 05:47:53;;;;;;;;;;;9.40;99.90;;;;;;4957482;28;20492;-83
2024/01/26 05:50:20;;;;;;;;;;;9.40;99.90;;;;;;4954311;28;20060;-83
2024/01/26 05:52:46;;;;;;;;;;;9.40;99.90;;;;;;4952886;28;19966;-83
2024/01/26 05:55:11;;;;;;;;;;;9.40;99.90;;;;;;4963768;28;19945;-83
2024/01/26 05:57:37;;;;;;;;;;;9.50;99.90;;;;;;4962284;28;20048;-83
2024/01/26 06:00:03;;;;;;;;;;;9.40;99.90;;;;;;4959564;28;25057;-83
2024/01/26 06:02:29;;;;;;;;;;;9.40;99.90;;;;;;4953968;28;19944;-84
2024/01/26 06:04:54;;;;;;;;;;;9.50;99.90;;;;;;4965185;28;19963;-83
2024/01/26 06:07:20;;;;;;;;;;;9.50;99.90;;;;;;4962164;28;19941;-83
2024/01/26 06:09:45;;;;;;;;;;;9.50;99.90;;;;;;4951809;28;19945;-84
2024/01/26 06:12:11;;;;;;;;;;;9.50;99.90;;;;;;4961355;28;19959;-83
2024/01/26 06:14:36;;;;;;;;;;;9.50;99.90;;;;;;4951556;28;20042;-83
2024/01/26 06:17:02;;;;;;;;;;;9.50;99.90;;;;;;4946604;28;19940;-84
2024/01/26 06:19:27;;;;;;;;;;;9.50;99.90;;;;;;4949094;28;19944;-83
2024/01/26 06:21:53;;;;;;;;;;;9.50;99.90;;;;;;4952047;28;20001;-84
2024/01/26 06:24:18;;;;;;;;;;;9.40;99.90;;;;;;4957111;28;19997;-84
2024/01/26 06:26:44;;;;;;;;;;;9.40;99.90;;;;;;4950124;28;20184;-83
2024/01/26 06:29:09;;;;;;;;;;;9.40;99.90;;;;;;4946465;28;20139;-83
2024/01/26 06:31:35;;;;;;;;;;;9.30;99.90;;;;;;4952330;28;19961;-83
2024/01/26 06:34:01;;;;;;;;;;;9.30;99.90;;;;;;4953681;28;19959;-84
2024/01/26 06:36:27;;;;;;;;;;;9.30;99.90;;;;;;4974239;28;19945;-83
2024/01/26 06:38:52;;;;;;;;;;;9.20;99.90;;;;;;4973668;28;19951;-83
2024/01/26 06:41:18;;;;;;;;;;;9.20;99.90;;;;;;4949555;28;19980;-84
2024/01/26 06:43:50;;;;;;;;;;;9.10;99.90;;;;;;4943886;28;19935;-83
2024/01/26 06:46:23;;;;;;;;;;;9.10;99.90;;;;;;4944822;28;20314;-84
2024/01/26 06:48:49;;;;;;;;;;;9.00;99.90;;;;;;4951029;28;19946;-85
2024/01/26 06:51:15;;;;;;;;;;;8.90;99.90;;;;;;4962285;28;19995;-84
2024/01/26 06:53:41;;;;;;;;;;;8.80;99.90;;;;;;4959639;28;20867;-85
2024/01/26 06:56:07;;;;;;;;;;;8.70;99.90;;;;;;4959961;28;19986;-84
2024/01/26 06:58:32;;;;;;;;;;;8.70;99.90;;;;;;4960689;28;19944;-85
2024/01/26 07:00:59;;;;;;;;;;;8.60;99.90;;;;;;4955325;28;20023;-85
2024/01/26 07:03:24;;;;;;;;;;;8.60;99.90;;;;;;4952439;28;20175;-85
2024/01/26 07:05:50;;;;;;;;;;;8.60;99.90;;;;;;4957759;28;19960;-85
2024/01/26 07:08:16;;;;;;;;;;;8.50;99.90;;;;;;4955271;28;19950;-85
2024/01/26 07:10:41;;;;;;;;;;;8.40;99.90;;;;;;4957130;28;19953;-85
2024/01/26 07:13:07;;;;;;;;;;;8.30;99.90;;;;;;4957929;28;19942;-85
2024/01/26 07:15:33;;;;;;;;;;;8.30;99.90;;;;;;4961446;28;19960;-85
2024/01/26 07:17:58;;;;;;;;;;;8.30;99.90;;;;;;4956223;28;20064;-85
2024/01/26 07:20:24;;;;;;;;;;;8.40;99.90;;;;;;4952934;28;19953;-84
2024/01/26 07:22:50;;;;;;;;;;;8.40;99.90;;;;;;4964159;28;20000;-84
2024/01/26 07:25:19;;;;;;;;;;;8.30;99.90;;;;;;4966584;28;20065;-85
2024/01/26 07:27:45;;;;;;;;;;;8.20;99.90;;;;;;4972067;28;19946;-84
2024/01/26 07:30:11;;;;;;;;;;;8.20;99.90;;;;;;4972519;28;19964;-85
2024/01/26 07:32:44;;;;;;;;;;;8.20;99.90;;;;;;4966892;28;19957;-85
2024/01/26 07:35:09;;;;;;;;;;;8.10;99.90;;;;;;4953665;28;20032;-84
2024/01/26 07:37:35;;;;;;;;;;;8.00;99.90;;;;;;4955306;28;20678;-85
2024/01/26 07:40:04;;;;;;;;;;;7.90;99.90;;;;;;4951257;28;19956;-85
2024/01/26 07:42:29;;;;;;;;;;;7.80;99.90;;;;;;4961855;28;19947;-85
2024/01/26 07:44:55;;;;;;;;;;;7.70;99.90;;;;;;4948569;28;20484;-86
2024/01/26 07:47:24;;;;;;;;;;;7.60;99.90;;;;;;4945292;28;19949;-87
2024/01/26 07:50:04;;;;;;;;;;;7.70;99.90;;;;;;4940942;28;19961;-85
2024/01/26 07:52:30;;;;;;;;;;;7.70;99.90;;;;;;4947843;28;20511;-86
2024/01/26 07:55:04;;;;;;;;;;;7.70;99.90;;;;;;4957892;28;19948;-86
2024/01/26 07:57:41;;;;;;;;;;;7.70;99.90;;;;;;4953405;28;19948;-86
2024/01/26 08:00:08;;;;;;;;;;;7.60;99.90;;;;;;4954728;28;19945;-85
2024/01/26 08:02:36;;;;;;;;;;;7.70;99.90;;;;;;4948971;28;20062;-84
2024/01/26 08:05:05;;;;;;;;;;;7.60;99.90;;;;;;4954920;28;19942;-85
2024/01/26 08:07:32;;;;;;;;;;;7.60;99.90;;;;;;4955247;28;19964;-85
2024/01/26 08:09:57;;;;;;;;;;;7.40;99.90;;;;;;4938376;28;19961;-84
2024/01/26 08:12:23;;;;;;;;;;;7.40;99.90;;;;;;4951557;28;19964;-84
2024/01/26 08:14:49;;;;;;;;;;;7.40;99.90;;;;;;4944888;28;20243;-86
2024/01/26 08:17:14;;;;;;;;;;;7.30;99.90;;;;;;4945909;28;25051;-84
2024/01/26 08:19:40;;;;;;;;;;;7.30;99.90;;;;;;4948702;28;20004;-86
2024/01/26 08:22:08;;;;;;;;;;;7.30;99.90;;;;;;4949914;28;19941;-87
2024/01/26 08:24:34;;;;;;;;;;;7.30;99.90;;;;;;4950065;28;19950;-87
2024/01/26 08:26:59;;;;;;;;;;;7.40;99.90;;;;;;4946242;28;20436;-87
2024/01/26 08:29:26;;;;;;;;;;;7.40;99.90;;;;;;4947438;28;19970;-86
2024/01/26 08:31:52;;;;;;;;;;;7.40;99.90;;;;;;4949194;28;19965;-86
2024/01/26 08:34:17;;;;;;;;;;;7.30;99.90;;;;;;4943505;28;19958;-85
2024/01/26 08:36:43;;;;;;;;;;;7.20;99.90;;;;;;4947770;28;20056;-84
2024/01/26 08:39:12;;;;;;;;;;;7.20;99.90;;;;;;4946923;28;21291;-86
2024/01/26 08:41:43;;;;;;;;;;;7.30;99.90;;;;;;4941970;28;19942;-84
2024/01/26 08:44:10;;;;;;;;;;;7.30;99.90;;;;;;4934155;28;20430;-80
2024/01/26 08:46:35;;;;;;;;;;;7.30;99.90;;;;;;4942775;28;20577;-79
2024/01/26 08:49:02;;;;;;;;;;;7.40;99.90;;;;;;4946658;28;20009;-86
2024/01/26 08:51:29;;;;;;;;;;;7.40;99.90;;;;;;4954637;28;20071;-87
2024/01/26 08:53:54;;;;;;;;;;;7.40;99.90;;;;;;4943241;28;19950;-83
2024/01/26 08:56:20;;;;;;;;;;;7.40;99.90;;;;;;4939969;28;20442;-85
2024/01/26 08:58:45;;;;;;;;;;;7.40;99.90;;;;;;4938684;28;20391;-84
2024/01/26 09:01:11;;;;;;;;;;;7.50;99.90;;;;;;4949375;28;20081;-87
2024/01/26 09:03:37;;;;;;;;;;;7.50;99.90;;;;;;4934671;28;20753;-84
2024/01/26 09:06:02;;;;;;;;;;;7.60;99.90;;;;;;4942546;28;19950;-85
2024/01/26 09:08:28;;;;;;;;;;;7.60;99.90;;;;;;4938916;28;19945;-86
2024/01/26 09:10:53;;;;;;;;;;;7.60;99.90;;;;;;4937564;28;20247;-86
2024/01/26 09:13:20;;;;;;;;;;;7.60;99.90;;;;;;4934986;28;20331;-82
2024/01/26 09:15:46;;;;;;;;;;;7.70;99.90;;;;;;4939221;28;21439;-83
2024/01/26 09:18:12;;;;;;;;;;;7.80;99.90;;;;;;4937972;28;20044;-84
2024/01/26 09:20:37;;;;;;;;;;;7.80;99.90;;;;;;4929823;28;19944;-84
2024/01/26 09:23:03;;;;;;;;;;;7.80;99.90;;;;;;4933072;28;19956;-81
2024/01/26 09:25:29;;;;;;;;;;;7.80;99.90;;;;;;4942906;28;19951;-82
2024/01/26 09:27:54;;;;;;;;;;;7.90;99.90;;;;;;4938306;28;19944;-83
2024/01/26 09:30:20;;;;;;;;;;;7.90;99.90;;;;;;4938316;28;20357;-80
2024/01/26 09:32:45;;;;;;;;;;;8.00;99.90;;;;;;4937590;28;19944;-83
2024/01/26 09:35:12;;;;;;;;;;;8.00;99.90;;;;;;4948420;28;20443;-81
2024/01/26 09:37:39;;;;;;;;;;;8.10;99.90;;;;;;4959854;28;19947;-80
2024/01/26 09:40:05;;;;;;;;;;;8.10;99.90;;;;;;4959903;28;20478;-82
2024/01/26 09:42:30;;;;;;;;;;;8.30;99.90;;;;;;4958114;28;25082;-83
2024/01/26 09:44:56;;;;;;;;;;;8.70;99.90;;;;;;4962890;28;20201;-81
2024/01/26 09:47:24;;;;;;;;;;;9.60;96.40;;;;;;4939973;28;20118;-86
2024/01/26 09:49:54;;;;;;;;;;;10.90;76.70;;;;;;4938043;28;20190;-83
2024/01/26 09:52:21;;;;;;;;;;;12.10;66.30;;;;;;4936177;28;20251;-80
2024/01/26 09:54:47;;;;;;;;;;;13.00;64.20;;;;;;4939912;28;19947;-85
2024/01/26 09:57:13;;;;;;;;;;;12.70;56.90;;;;;;4930866;28;19958;-81
2024/01/26 09:59:38;;;;;;;;;;;13.00;54.10;;;;;;4923137;28;19990;-82
2024/01/26 10:02:04;;;;;;;;;;;13.00;58.00;;;;;;4937321;28;20007;-81
2024/01/26 10:04:30;;;;;;;;;;;13.40;56.30;;;;;;4939709;28;20313;-84
2024/01/26 10:06:55;;;;;;;;;;;13.40;53.60;;;;;;4942579;28;20004;-83
2024/01/26 10:09:23;;;;;;;;;;;13.90;51.10;;;;;;4944464;28;20060;-81
2024/01/26 10:11:49;;;;;;;;;;;13.80;52.20;;;;;;4934109;28;19956;-82
2024/01/26 10:14:22;;;;;;;;;;;14.20;55.60;;;;;;4942376;28;19980;-86
2024/01/26 10:17:03;;;;;;;;;;;15.70;48.40;;;;;;4952835;28;20020;-81
2024/01/26 10:19:30;;;;;;;;;;;15.60;45.90;;;;;;4940394;28;19998;-83
2024/01/26 10:21:56;;;;;;;;;;;15.80;45.70;;;;;;4928722;28;19982;-82
2024/01/26 10:24:24;;;;;;;;;;;16.90;48.10;;;;;;4933154;28;19951;-84
2024/01/26 10:26:50;;;;;;;;;;;17.00;41.00;;;;;;4946029;28;20074;-82
2024/01/26 10:29:15;;;;;;;;;;;17.10;40.90;;;;;;4936818;28;20251;-83
2024/01/26 10:31:41;;;;;;;;;;;17.10;43.00;;;;;;4926819;28;19954;-84
2024/01/26 10:34:12;;;;;;;;;;;16.70;42.70;;;;;;4927674;28;20403;-83
2024/01/26 10:36:40;;;;;;;;;;;17.90;40.40;;;;;;4928475;28;19960;-82
2024/01/26 10:39:07;;;;;;;;;;;17.50;40.20;;;;;;4926650;28;20008;-83
2024/01/26 10:41:37;;;;;;;;;;;16.60;40.90;;;;;;4923011;28;20047;-83
2024/01/26 10:44:03;;;;;;;;;;;16.80;42.10;;;;;;4932029;28;20480;-84
2024/01/26 10:46:29;;;;;;;;;;;16.90;42.50;;;;;;4929393;28;20195;-83
2024/01/26 10:48:55;;;;;;;;;;;17.00;41.10;;;;;;4920740;28;19933;-82
2024/01/26 10:51:21;;;;;;;;;;;16.40;43.10;;;;;;4933007;28;19961;-86
2024/01/26 10:53:53;;;;;;;;;;;17.10;41.50;;;;;;4930478;28;19948;-88
2024/01/26 10:56:18;;;;;;;;;;;17.20;40.70;;;;;;4929169;28;20087;-84
2024/01/26 10:58:44;;;;;;;;;;;16.60;41.80;;;;;;4925581;28;19997;-85
2024/01/26 11:01:10;;;;;;;;;;;16.60;40.30;;;;;;4926170;28;19957;-84
2024/01/26 11:03:36;;;;;;;;;;;15.40;41.60;;;;;;4918300;28;20457;-84
2024/01/26 11:06:02;;;;;;;;;;;15.70;43.10;;;;;;4917000;28;20154;-86
2024/01/26 11:08:44;;;;;;;;;;;17.20;43.50;;;;;;4922926;28;20130;-88
2024/01/26 11:11:09;;;;;;;;;;;17.90;39.60;;;;;;4933598;28;19960;-86
2024/01/26 11:13:36;;;;;;;;;;;18.60;37.40;;;;;;4925007;28;20033;-84
2024/01/26 11:16:03;;;;;;;;;;;16.90;38.60;;;;;;4929336;28;20028;-83
2024/01/26 11:18:28;;;;;;;;;;;16.20;39.40;;;;;;4922455;28;19954;-84
2024/01/26 11:20:54;;;;;;;;;;;15.80;42.40;;;;;;4921353;28;20004;-86
2024/01/26 11:23:21;;;;;;;;;;;16.20;44.00;;;;;;4920108;28;19951;-87
2024/01/26 11:25:47;;;;;;;;;;;17.60;38.50;;;;;;4918935;28;20061;-82
2024/01/26 11:28:15;;;;;;;;;;;18.10;38.00;;;;;;4921168;28;21220;-82
2024/01/26 11:30:40;;;;;;;;;;;17.90;39.10;;;;;;4928632;28;20216;-89
2024/01/26 11:33:21;;;;;;;;;;;19.00;35.30;;;;;;4944131;28;20420;-86
2024/01/26 11:35:47;;;;;;;;;;;17.40;37.40;;;;;;4943325;28;19985;-81
2024/01/26 11:38:13;;;;;;;;;;;17.80;38.70;;;;;;4941328;28;20634;-84
2024/01/26 11:40:39;;;;;;;;;;;18.10;36.10;;;;;;4944205;28;20196;-81
2024/01/26 11:43:04;;;;;;;;;;;18.30;39.40;;;;;;4944687;28;20028;-81
2024/01/26 11:45:31;;;;;;;;;;;18.70;37.00;;;;;;4942011;28;20793;-89
2024/01/26 11:47:57;;;;;;;;;;;19.30;37.30;;;;;;4946094;28;19952;-85
2024/01/26 11:50:22;;;;;;;;;;;19.70;35.90;;;;;;4953576;28;20829;-91
2024/01/26 11:52:48;;;;;;;;;;;19.70;35.70;;;;;;4966401;28;19951;-84
2024/01/26 11:55:13;;;;;;;;;;;19.50;35.40;;;;;;4968534;28;19939;-80
2024/01/26 11:57:39;;;;;;;;;;;20.80;34.10;;;;;;4965426;28;19955;-82
2024/01/26 12:00:09;;;;;;;;;;;18.70;34.60;;;;;;4964354;28;19963;-82
2024/01/26 12:02:35;;;;;;;;;;;17.70;38.10;;;;;;4945374;28;19940;-82
2024/01/26 12:05:00;;;;;;;;;;;17.50;39.60;;;;;;4944997;28;20418;-85
2024/01/26 12:07:26;;;;;;;;;;;17.80;39.00;;;;;;4951276;28;19970;-85
2024/01/26 12:09:52;;;;;;;;;;;18.40;35.90;;;;;;4936846;28;19944;-87
2024/01/26 12:12:18;;;;;;;;;;;18.90;36.30;;;;;;4908677;28;20690;-87
2024/01/26 12:14:44;;;;;;;;;;;18.50;35.30;;;;;;4898958;28;19947;-83
2024/01/26 12:17:09;;;;;;;;;;;18.80;35.10;;;;;;4930144;28;20488;-90
2024/01/26 12:19:35;;;;;;;;;;;19.10;32.90;;;;;;4936398;28;19955;-84
2024/01/26 12:22:00;;;;;;;;;;;19.20;33.10;;;;;;4948623;28;20055;-81
2024/01/26 12:24:26;;;;;;;;;;;19.10;34.30;;;;;;4947173;28;20463;-82
2024/01/26 12:26:51;;;;;;;;;;;19.20;33.40;;;;;;4952655;28;19955;-82
2024/01/26 12:29:17;;;;;;;;;;;19.50;34.50;;;;;;4946048;28;20427;-85
2024/01/26 12:31:42;;;;;;;;;;;19.10;33.10;;;;;;4952873;28;19955;-83
2024/01/26 12:34:13;;;;;;;;;;;18.10;34.40;;;;;;4940418;28;20799;-83
2024/01/26 12:36:38;;;;;;;;;;;18.30;36.90;;;;;;4939389;28;19947;-82
2024/01/26 12:39:05;;;;;;;;;;;18.20;36.20;;;;;;4937879;28;19957;-81
2024/01/26 12:41:32;;;;;;;;;;;18.60;36.50;;;;;;4948324;28;19948;-82
2024/01/26 12:43:57;;;;;;;;;;;18.40;34.60;;;;;;4946683;28;19950;-83
2024/01/26 12:46:23;;;;;;;;;;;18.10;34.40;;;;;;4944175;28;19944;-85
2024/01/26 12:48:48;;;;;;;;;;;18.70;35.40;;;;;;4942817;28;19940;-82
2024/01/26 12:51:14;;;;;;;;;;;18.70;35.70;;;;;;4951516;28;19958;-81
2024/01/26 12:53:41;;;;;;;;;;;18.50;36.00;;;;;;4934528;28;22326;-82
2024/01/26 12:56:07;;;;;;;;;;;19.30;35.30;;;;;;4953492;28;19965;-86
2024/01/26 12:58:32;;;;;;;;;;;19.00;32.60;;;;;;4963049;28;21228;-88
2024/01/26 13:00:58;;;;;;;;;;;19.60;34.70;;;;;;4942844;28;19947;-82
2024/01/26 13:03:24;;;;;;;;;;;19.90;33.80;;;;;;4931854;28;20001;-85
2024/01/26 13:05:51;;;;;;;;;;;19.90;34.90;;;;;;4943564;28;19949;-83
2024/01/26 13:08:18;;;;;;;;;;;19.90;31.50;;;;;;4941158;28;20031;-84
2024/01/26 13:10:45;;;;;;;;;;;18.80;33.90;;;;;;4941032;28;19968;-85
2024/01/26 13:13:11;;;;;;;;;;;18.30;32.20;;;;;;4943436;28;21794;-83
2024/01/26 13:15:37;;;;;;;;;;;17.00;34.30;;;;;;4952942;28;20025;-83
2024/01/26 13:18:03;;;;;;;;;;;16.40;36.80;;;;;;4940817;28;20415;-85
2024/01/26 13:20:28;;;;;;;;;;;17.50;34.90;;;;;;4948465;28;20462;-84
2024/01/26 13:22:54;;;;;;;;;;;16.50;35.90;;;;;;4943799;28;20264;-85
2024/01/26 13:25:19;;;;;;;;;;;16.90;37.90;;;;;;4938645;28;19998;-84
2024/01/26 13:27:45;;;;;;;;;;;17.50;36.40;;;;;;4943105;28;19952;-84
2024/01/26 13:30:11;;;;;;;;;;;17.70;35.60;;;;;;4941664;28;19958;-85
2024/01/26 13:32:37;;;;;;;;;;;18.50;34.50;;;;;;4943161;28;19976;-84
2024/01/26 13:35:04;;;;;;;;;;;18.10;34.70;;;;;;4940702;28;19944;-85
2024/01/26 13:37:30;;;;;;;;;;;17.70;34.60;;;;;;4935142;28;20195;-85
2024/01/26 13:39:56;;;;;;;;;;;19.30;33.40;;;;;;4949209;28;20401;-85
2024/01/26 13:42:21;;;;;;;;;;;20.90;32.30;;;;;;4944051;28;19957;-85
2024/01/26 13:44:48;;;;;;;;;;;21.50;29.90;;;;;;4939893;28;19957;-84
2024/01/26 13:47:14;;;;;;;;;;;21.10;30.50;;;;;;4946380;28;20016;-86
2024/01/26 13:49:40;;;;;;;;;;;21.30;31.70;;;;;;4945599;28;19945;-85
2024/01/26 13:52:05;;;;;;;;;;;21.40;29.60;;;;;;4947725;28;20056;-86
2024/01/26 13:54:31;;;;;;;;;;;21.10;29.30;;;;;;4944727;28;20135;-85
2024/01/26 13:57:00;;;;;;;;;;;21.60;29.40;;;;;;4951561;28;20398;-84
2024/01/26 13:59:25;;;;;;;;;;;20.30;29.80;;;;;;4946306;28;20644;-86
2024/01/26 14:01:51;;;;;;;;;;;19.80;30.40;;;;;;4955721;28;19981;-86
2024/01/26 14:04:19;;;;;;;;;;;20.00;31.00;;;;;;4963071;28;20009;-81
2024/01/26 14:06:44;;;;;;;;;;;20.60;31.90;;;;;;4969251;28;19945;-83
2024/01/26 14:09:12;;;;;;;;;;;20.30;30.20;;;;;;4976551;28;19940;-83
2024/01/26 14:11:38;;;;;;;;;;;20.30;31.40;;;;;;4972608;28;19957;-84
2024/01/26 14:14:06;;;;;;;;;;;19.70;29.50;;;;;;4953077;28;20386;-90
2024/01/26 14:16:31;;;;;;;;;;;19.10;32.80;;;;;;4945445;28;20078;-88